sensor_id;sensor_type;location;lat;lon;timestamp;pressure;altitude;pressure_sealevel;temperature;humidity
55038;BME280;40937;53.594;10.034;2022-07-17T00:01:48;78736.84;;;-147.20;54.64
55038;BME280;40937;53.594;10.034;2022-07-17T00:04:15;78734.81;;;-147.20;54.72
55038;BME280;40937;53.594;10.034;2022-07-17T00:06:41;78742.88;;;-147.20;54.99
55038;BME280;40937;53.594;10.034;2022-07-17T00:09:08;78742.88;;;-147.20;55.09
55038;BME280;40937;53.594;10.034;2022-07-17T00:11:35;78759.03;;;-147.20;55.48
55038;BME280;40937;53.594;10.034;2022-07-17T00:14:01;78763.09;;;-147.20;55.59
55038;BME280;40937;53.594;10.034;2022-07-17T00:16:29;78763.09;;;-147.20;55.84
55038;BME280;40937;53.594;10.034;2022-07-17T00:18:56;78769.13;;;-147.20;55.87
55038;BME280;40937;53.594;10.034;2022-07-17T00:21:23;78765.09;;;-147.20;55.92
55038;BME280;40937;53.594;10.034;2022-07-17T00:23:50;78765.09;;;-147.20;56.04
55038;BME280;40937;53.594;10.034;2022-07-17T00:26:16;78769.13;;;-147.20;55.82
55038;BME280;40937;53.594;10.034;2022-07-17T00:28:43;78775.19;;;-147.20;55.90
55038;BME280;40937;53.594;10.034;2022-07-17T00:31:09;78773.19;;;-147.20;55.87
55038;BME280;40937;53.594;10.034;2022-07-17T00:33:37;78783.28;;;-147.20;56.06
55038;BME280;40937;53.594;10.034;2022-07-17T00:36:04;78783.28;;;-147.20;56.36
55038;BME280;40937;53.594;10.034;2022-07-17T00:38:31;78781.25;;;-147.20;56.21
55038;BME280;40937;53.594;10.034;2022-07-17T00:40:58;78779.25;;;-147.20;56.28
55038;BME280;40937;53.594;10.034;2022-07-17T00:43:25;78785.28;;;-147.20;56.24
55038;BME280;40937;53.594;10.034;2022-07-17T00:45:57;78787.31;;;-147.20;56.41
55038;BME280;40937;53.594;10.034;2022-07-17T00:48:24;78779.25;;;-147.20;56.34
55038;BME280;40937;53.594;10.034;2022-07-17T00:50:53;78779.25;;;-147.20;56.42
55038;BME280;40937;53.594;10.034;2022-07-17T00:53:21;78787.31;;;-147.20;56.68
55038;BME280;40937;53.594;10.034;2022-07-17T00:55:48;78789.34;;;-147.20;56.67
55038;BME280;40937;53.594;10.034;2022-07-17T00:58:18;78787.31;;;-147.20;56.83
55038;BME280;40937;53.594;10.034;2022-07-17T01:00:45;78787.31;;;-147.20;56.72
55038;BME280;40937;53.594;10.034;2022-07-17T01:03:12;78795.41;;;-147.20;56.91
55038;BME280;40937;53.594;10.034;2022-07-17T01:05:38;78797.41;;;-147.20;56.91
55038;BME280;40937;53.594;10.034;2022-07-17T01:08:06;78801.44;;;-147.20;57.06
55038;BME280;40937;53.594;10.034;2022-07-17T01:10:33;78809.53;;;-147.20;57.43
55038;BME280;40937;53.594;10.034;2022-07-17T01:13:00;78801.44;;;-147.20;57.18
55038;BME280;40937;53.594;10.034;2022-07-17T01:15:26;78803.47;;;-147.20;57.01
55038;BME280;40937;53.594;10.034;2022-07-17T01:17:55;78811.56;;;-147.20;57.31
55038;BME280;40937;53.594;10.034;2022-07-17T01:20:21;78817.59;;;-147.20;57.43
55038;BME280;40937;53.594;10.034;2022-07-17T01:22:51;78823.66;;;-147.20;57.60
55038;BME280;40937;53.594;10.034;2022-07-17T01:25:21;78825.69;;;-147.20;57.41
55038;BME280;40937;53.594;10.034;2022-07-17T01:27:48;78827.72;;;-147.20;57.58
55038;BME280;40937;53.594;10.034;2022-07-17T01:30:15;78835.78;;;-147.20;57.59
55038;BME280;40937;53.594;10.034;2022-07-17T01:32:42;78837.81;;;-147.20;57.69
55038;BME280;40937;53.594;10.034;2022-07-17T01:35:10;78833.75;;;-147.20;57.48
55038;BME280;40937;53.594;10.034;2022-07-17T01:37:38;78833.75;;;-147.20;57.49
55038;BME280;40937;53.594;10.034;2022-07-17T01:40:08;78829.72;;;-147.20;57.54
55038;BME280;40937;53.594;10.034;2022-07-17T01:42:35;78833.75;;;-147.20;57.36
55038;BME280;40937;53.594;10.034;2022-07-17T01:45:02;78835.78;;;-147.20;57.42
55038;BME280;40937;53.594;10.034;2022-07-17T01:47:29;78825.69;;;-147.20;56.99
55038;BME280;40937;53.594;10.034;2022-07-17T01:49:57;78819.63;;;-147.20;56.85
55038;BME280;40937;53.594;10.034;2022-07-17T01:52:24;78837.81;;;-147.20;57.21
55038;BME280;40937;53.594;10.034;2022-07-17T01:54:52;78829.72;;;-147.20;57.05
55038;BME280;40937;53.594;10.034;2022-07-17T01:57:21;78831.75;;;-147.20;57.09
55038;BME280;40937;53.594;10.034;2022-07-17T01:59:48;78823.66;;;-147.20;56.94
55038;BME280;40937;53.594;10.034;2022-07-17T02:02:14;78817.59;;;-147.20;56.99
55038;BME280;40937;53.594;10.034;2022-07-17T02:04:42;78817.59;;;-147.20;57.42
55038;BME280;40937;53.594;10.034;2022-07-17T02:07:09;78813.56;;;-147.20;57.47
55038;BME280;40937;53.594;10.034;2022-07-17T02:09:36;78807.50;;;-147.20;57.42
55038;BME280;40937;53.594;10.034;2022-07-17T02:12:04;78803.47;;;-147.20;57.38
55038;BME280;40937;53.594;10.034;2022-07-17T02:14:33;78799.44;;;-147.20;57.17
55038;BME280;40937;53.594;10.034;2022-07-17T02:17:00;78801.44;;;-147.20;57.48
55038;BME280;40937;53.594;10.034;2022-07-17T02:19:27;78803.47;;;-147.20;57.10
55038;BME280;40937;53.594;10.034;2022-07-17T02:21:54;78807.50;;;-147.20;57.04
55038;BME280;40937;53.594;10.034;2022-07-17T02:24:21;78791.34;;;-147.20;56.78
55038;BME280;40937;53.594;10.034;2022-07-17T02:26:47;78803.47;;;-147.20;57.08
55038;BME280;40937;53.594;10.034;2022-07-17T02:29:14;78813.56;;;-147.20;57.23
55038;BME280;40937;53.594;10.034;2022-07-17T02:31:42;78813.56;;;-147.20;57.45
55038;BME280;40937;53.594;10.034;2022-07-17T02:34:09;78805.50;;;-147.20;57.00
55038;BME280;40937;53.594;10.034;2022-07-17T02:36:36;78817.59;;;-147.20;57.27
55038;BME280;40937;53.594;10.034;2022-07-17T02:39:03;78823.66;;;-147.20;57.60
55038;BME280;40937;53.594;10.034;2022-07-17T02:41:29;78821.66;;;-147.20;57.19
55038;BME280;40937;53.594;10.034;2022-07-17T02:43:56;78829.72;;;-147.20;57.41
55038;BME280;40937;53.594;10.034;2022-07-17T02:46:23;78817.59;;;-147.20;56.96
55038;BME280;40937;53.594;10.034;2022-07-17T02:48:51;78817.59;;;-147.20;56.86
55038;BME280;40937;53.594;10.034;2022-07-17T02:51:17;78819.63;;;-147.20;56.93
55038;BME280;40937;53.594;10.034;2022-07-17T02:53:44;78819.63;;;-147.20;56.83
55038;BME280;40937;53.594;10.034;2022-07-17T02:56:11;78821.66;;;-147.20;57.02
55038;BME280;40937;53.594;10.034;2022-07-17T02:58:37;78813.56;;;-147.20;56.59
55038;BME280;40937;53.594;10.034;2022-07-17T03:01:04;78813.56;;;-147.20;56.49
55038;BME280;40937;53.594;10.034;2022-07-17T03:03:31;78815.59;;;-147.20;56.72
55038;BME280;40937;53.594;10.034;2022-07-17T03:05:59;78823.66;;;-147.20;56.53
55038;BME280;40937;53.594;10.034;2022-07-17T03:08:26;78821.66;;;-147.20;56.48
55038;BME280;40937;53.594;10.034;2022-07-17T03:10:52;78829.72;;;-147.20;56.46
55038;BME280;40937;53.594;10.034;2022-07-17T03:13:19;78831.75;;;-147.20;56.40
55038;BME280;40937;53.594;10.034;2022-07-17T03:15:45;78827.72;;;-147.20;56.03
55038;BME280;40937;53.594;10.034;2022-07-17T03:18:12;78825.69;;;-147.20;56.14
55038;BME280;40937;53.594;10.034;2022-07-17T03:20:39;78829.72;;;-147.20;56.15
55038;BME280;40937;53.594;10.034;2022-07-17T03:23:07;78823.66;;;-147.20;56.24
55038;BME280;40937;53.594;10.034;2022-07-17T03:25:33;78817.59;;;-147.20;56.09
55038;BME280;40937;53.594;10.034;2022-07-17T03:28:00;78809.53;;;-147.20;55.62
55038;BME280;40937;53.594;10.034;2022-07-17T03:30:27;78813.56;;;-147.20;55.84
55038;BME280;40937;53.594;10.034;2022-07-17T03:32:53;78803.47;;;-147.20;55.95
55038;BME280;40937;53.594;10.034;2022-07-17T03:35:20;78801.44;;;-147.20;56.03
55038;BME280;40937;53.594;10.034;2022-07-17T03:37:46;78793.38;;;-147.20;55.84
55038;BME280;40937;53.594;10.034;2022-07-17T03:40:15;78793.38;;;-147.20;56.01
55038;BME280;40937;53.594;10.034;2022-07-17T03:42:42;78783.28;;;-147.20;55.84
55038;BME280;40937;53.594;10.034;2022-07-17T03:45:09;78799.44;;;-147.20;56.20
55038;BME280;40937;53.594;10.034;2022-07-17T03:47:35;78791.34;;;-147.20;56.04
55038;BME280;40937;53.594;10.034;2022-07-17T03:50:03;78795.41;;;-147.20;56.14
55038;BME280;40937;53.594;10.034;2022-07-17T03:52:30;78801.44;;;-147.20;56.07
55038;BME280;40937;53.594;10.034;2022-07-17T03:54:56;78799.44;;;-147.20;55.88
55038;BME280;40937;53.594;10.034;2022-07-17T03:57:24;78807.50;;;-147.20;56.14
55038;BME280;40937;53.594;10.034;2022-07-17T03:59:51;78805.50;;;-147.20;56.27
55038;BME280;40937;53.594;10.034;2022-07-17T04:02:17;78815.59;;;-147.20;56.13
55038;BME280;40937;53.594;10.034;2022-07-17T04:04:44;78821.66;;;-147.20;56.45
55038;BME280;40937;53.594;10.034;2022-07-17T04:07:11;78819.63;;;-147.20;56.34
55038;BME280;40937;53.594;10.034;2022-07-17T04:09:53;78819.63;;;-147.20;56.33
55038;BME280;40937;53.594;10.034;2022-07-17T04:12:20;78819.63;;;-147.20;56.36
55038;BME280;40937;53.594;10.034;2022-07-17T04:14:48;78815.59;;;-147.20;56.29
55038;BME280;40937;53.594;10.034;2022-07-17T04:17:15;78797.41;;;-147.20;56.00
55038;BME280;40937;53.594;10.034;2022-07-17T04:19:42;78803.47;;;-147.20;55.93
55038;BME280;40937;53.594;10.034;2022-07-17T04:22:08;78813.56;;;-147.20;55.81
55038;BME280;40937;53.594;10.034;2022-07-17T04:24:35;78817.59;;;-147.20;56.09
55038;BME280;40937;53.594;10.034;2022-07-17T04:27:02;78813.56;;;-147.20;56.11
55038;BME280;40937;53.594;10.034;2022-07-17T04:29:29;78805.50;;;-147.20;55.92
55038;BME280;40937;53.594;10.034;2022-07-17T04:31:57;78793.38;;;-147.20;55.71
55038;BME280;40937;53.594;10.034;2022-07-17T04:34:23;78795.41;;;-147.20;55.82
55038;BME280;40937;53.594;10.034;2022-07-17T04:36:50;78793.38;;;-147.20;55.93
55038;BME280;40937;53.594;10.034;2022-07-17T04:39:16;78797.41;;;-147.20;55.94
55038;BME280;40937;53.594;10.034;2022-07-17T04:41:43;78783.28;;;-147.20;55.76
55038;BME280;40937;53.594;10.034;2022-07-17T04:44:10;78781.25;;;-147.20;55.63
55038;BME280;40937;53.594;10.034;2022-07-17T04:46:36;78775.19;;;-147.20;55.54
55038;BME280;40937;53.594;10.034;2022-07-17T04:49:04;78775.19;;;-147.20;55.43
55038;BME280;40937;53.594;10.034;2022-07-17T04:51:31;78773.19;;;-147.20;55.64
55038;BME280;40937;53.594;10.034;2022-07-17T04:53:57;78771.16;;;-147.20;55.82
55038;BME280;40937;53.594;10.034;2022-07-17T04:56:24;78763.09;;;-147.20;55.81
55038;BME280;40937;53.594;10.034;2022-07-17T04:58:51;78765.09;;;-147.20;55.57
55038;BME280;40937;53.594;10.034;2022-07-17T05:01:18;78769.13;;;-147.20;55.77
55038;BME280;40937;53.594;10.034;2022-07-17T05:03:44;78761.06;;;-147.20;55.94
55038;BME280;40937;53.594;10.034;2022-07-17T05:06:12;78759.03;;;-147.20;55.83
55038;BME280;40937;53.594;10.034;2022-07-17T05:08:39;78752.97;;;-147.20;55.64
55038;BME280;40937;53.594;10.034;2022-07-17T05:11:06;78752.97;;;-147.20;55.72
55038;BME280;40937;53.594;10.034;2022-07-17T05:13:32;78759.03;;;-147.20;55.46
55038;BME280;40937;53.594;10.034;2022-07-17T05:15:59;78744.91;;;-147.20;55.10
55038;BME280;40937;53.594;10.034;2022-07-17T05:18:26;78744.91;;;-147.20;55.29
55038;BME280;40937;53.594;10.034;2022-07-17T05:20:53;78744.91;;;-147.20;55.15
55038;BME280;40937;53.594;10.034;2022-07-17T05:23:21;78746.94;;;-147.20;54.94
55038;BME280;40937;53.594;10.034;2022-07-17T05:25:48;78746.94;;;-147.20;55.16
55038;BME280;40937;53.594;10.034;2022-07-17T05:28:14;78750.97;;;-147.20;55.10
55038;BME280;40937;53.594;10.034;2022-07-17T05:30:41;78755.00;;;-147.20;55.03
55038;BME280;40937;53.594;10.034;2022-07-17T05:33:07;78752.97;;;-147.20;55.20
55038;BME280;40937;53.594;10.034;2022-07-17T05:35:34;78757.03;;;-147.20;55.32
55038;BME280;40937;53.594;10.034;2022-07-17T05:38:01;78748.94;;;-147.20;54.97
55038;BME280;40937;53.594;10.034;2022-07-17T05:40:29;78746.94;;;-147.20;55.11
55038;BME280;40937;53.594;10.034;2022-07-17T05:42:56;78738.84;;;-147.20;54.90
55038;BME280;40937;53.594;10.034;2022-07-17T05:45:23;78738.84;;;-147.20;54.89
55038;BME280;40937;53.594;10.034;2022-07-17T05:47:50;78728.75;;;-147.20;54.87
55038;BME280;40937;53.594;10.034;2022-07-17T05:50:16;78738.84;;;-147.20;55.09
55038;BME280;40937;53.594;10.034;2022-07-17T05:52:43;78728.75;;;-147.20;54.98
55038;BME280;40937;53.594;10.034;2022-07-17T05:55:09;78724.72;;;-147.20;54.97
55038;BME280;40937;53.594;10.034;2022-07-17T05:57:38;78724.72;;;-147.20;54.89
55038;BME280;40937;53.594;10.034;2022-07-17T06:00:05;78724.72;;;-147.20;54.79
55038;BME280;40937;53.594;10.034;2022-07-17T06:02:37;78724.72;;;-147.20;54.52
55038;BME280;40937;53.594;10.034;2022-07-17T06:05:04;78728.75;;;-147.20;54.57
55038;BME280;40937;53.594;10.034;2022-07-17T06:07:31;78720.66;;;-147.20;54.16
55038;BME280;40937;53.594;10.034;2022-07-17T06:09:58;78716.63;;;-147.20;54.27
55038;BME280;40937;53.594;10.034;2022-07-17T06:12:24;78720.66;;;-147.20;54.38
55038;BME280;40937;53.594;10.034;2022-07-17T06:14:52;78714.63;;;-147.20;54.21
55038;BME280;40937;53.594;10.034;2022-07-17T06:17:19;78706.53;;;-147.20;54.19
55038;BME280;40937;53.594;10.034;2022-07-17T06:19:46;78706.53;;;-147.20;54.07
55038;BME280;40937;53.594;10.034;2022-07-17T06:22:12;78700.47;;;-147.20;53.62
55038;BME280;40937;53.594;10.034;2022-07-17T06:24:39;78702.50;;;-147.20;52.71
55038;BME280;40937;53.594;10.034;2022-07-17T06:27:05;78700.47;;;-147.20;52.60
55038;BME280;40937;53.594;10.034;2022-07-17T06:29:32;78702.50;;;-147.20;52.45
55038;BME280;40937;53.594;10.034;2022-07-17T06:32:00;78696.44;;;-147.20;52.48
55038;BME280;40937;53.594;10.034;2022-07-17T06:34:27;78702.50;;;-147.20;52.61
55038;BME280;40937;53.594;10.034;2022-07-17T06:36:53;78694.41;;;-147.20;52.62
55038;BME280;40937;53.594;10.034;2022-07-17T06:39:20;78694.41;;;-147.20;52.58
55038;BME280;40937;53.594;10.034;2022-07-17T06:41:47;78684.31;;;-147.20;52.34
55038;BME280;40937;53.594;10.034;2022-07-17T06:44:14;78694.41;;;-147.20;52.31
55038;BME280;40937;53.594;10.034;2022-07-17T06:46:41;78694.41;;;-147.20;52.27
55038;BME280;40937;53.594;10.034;2022-07-17T06:49:09;78690.38;;;-147.20;52.08
55038;BME280;40937;53.594;10.034;2022-07-17T06:51:36;78692.41;;;-147.20;52.28
55038;BME280;40937;53.594;10.034;2022-07-17T06:54:03;78694.41;;;-147.20;52.19
55038;BME280;40937;53.594;10.034;2022-07-17T06:56:29;78692.41;;;-147.20;52.15
55038;BME280;40937;53.594;10.034;2022-07-17T06:58:56;78690.38;;;-147.20;52.21
55038;BME280;40937;53.594;10.034;2022-07-17T07:01:23;78686.34;;;-147.20;52.31
55038;BME280;40937;53.594;10.034;2022-07-17T07:03:49;78692.41;;;-147.20;52.08
55038;BME280;40937;53.594;10.034;2022-07-17T07:06:17;78694.41;;;-147.20;52.07
55038;BME280;40937;53.594;10.034;2022-07-17T07:08:44;78686.34;;;-147.20;52.24
55038;BME280;40937;53.594;10.034;2022-07-17T07:11:11;78690.38;;;-147.20;52.12
55038;BME280;40937;53.594;10.034;2022-07-17T07:13:37;78676.25;;;-147.20;52.23
55038;BME280;40937;53.594;10.034;2022-07-17T07:16:04;78672.22;;;-147.20;52.45
55038;BME280;40937;53.594;10.034;2022-07-17T07:18:31;78662.09;;;-147.20;52.26
55038;BME280;40937;53.594;10.034;2022-07-17T07:20:58;78656.06;;;-147.20;52.29
55038;BME280;40937;53.594;10.034;2022-07-17T07:23:26;78647.97;;;-147.20;52.24
55038;BME280;40937;53.594;10.034;2022-07-17T07:25:52;78631.81;;;-147.20;51.98
55038;BME280;40937;53.594;10.034;2022-07-17T07:28:19;78619.69;;;-147.20;51.81
55038;BME280;40937;53.594;10.034;2022-07-17T07:30:45;78615.66;;;-147.20;51.95
55038;BME280;40937;53.594;10.034;2022-07-17T07:33:12;78621.72;;;-147.20;51.93
55038;BME280;40937;53.594;10.034;2022-07-17T07:35:39;78623.75;;;-147.20;52.09
55038;BME280;40937;53.594;10.034;2022-07-17T07:38:06;78623.75;;;-147.20;51.95
55038;BME280;40937;53.594;10.034;2022-07-17T07:40:35;78613.66;;;-147.20;51.98
55038;BME280;40937;53.594;10.034;2022-07-17T07:43:01;78607.59;;;-147.20;52.09
55038;BME280;40937;53.594;10.034;2022-07-17T07:45:28;78613.66;;;-147.20;52.11
55038;BME280;40937;53.594;10.034;2022-07-17T07:47:56;78609.59;;;-147.20;52.02
55038;BME280;40937;53.594;10.034;2022-07-17T07:50:24;78591.44;;;-147.20;51.78
55038;BME280;40937;53.594;10.034;2022-07-17T07:52:52;78591.44;;;-147.20;51.63
55038;BME280;40937;53.594;10.034;2022-07-17T07:55:18;78591.44;;;-147.20;51.38
55038;BME280;40937;53.594;10.034;2022-07-17T07:57:47;78585.38;;;-147.20;51.69
55038;BME280;40937;53.594;10.034;2022-07-17T08:00:15;78589.41;;;-147.20;51.43
55038;BME280;40937;53.594;10.034;2022-07-17T08:02:42;78573.25;;;-147.20;50.99
55038;BME280;40937;53.594;10.034;2022-07-17T08:05:08;78567.19;;;-147.20;51.09
55038;BME280;40937;53.594;10.034;2022-07-17T08:07:36;78565.19;;;-147.20;51.19
55038;BME280;40937;53.594;10.034;2022-07-17T08:10:03;78557.09;;;-147.20;51.32
55038;BME280;40937;53.594;10.034;2022-07-17T08:12:30;78553.06;;;-147.20;50.89
55038;BME280;40937;53.594;10.034;2022-07-17T08:14:58;78547.00;;;-147.20;49.99
55038;BME280;40937;53.594;10.034;2022-07-17T08:17:24;78565.19;;;-147.20;49.73
55038;BME280;40937;53.594;10.034;2022-07-17T08:19:51;78553.06;;;-147.20;49.69
55038;BME280;40937;53.594;10.034;2022-07-17T08:22:18;78547.00;;;-147.20;49.56
55038;BME280;40937;53.594;10.034;2022-07-17T08:24:44;78530.84;;;-147.20;49.48
55038;BME280;40937;53.594;10.034;2022-07-17T08:27:11;78512.69;;;-147.20;49.24
55038;BME280;40937;53.594;10.034;2022-07-17T08:29:38;78516.72;;;-147.20;49.40
55038;BME280;40937;53.594;10.034;2022-07-17T08:32:06;78512.69;;;-147.20;49.46
55038;BME280;40937;53.594;10.034;2022-07-17T08:34:33;78516.72;;;-147.20;48.70
55038;BME280;40937;53.594;10.034;2022-07-17T08:36:59;78512.69;;;-147.20;47.96
55038;BME280;40937;53.594;10.034;2022-07-17T08:39:26;78522.78;;;-147.20;48.01
55038;BME280;40937;53.594;10.034;2022-07-17T08:41:53;78522.78;;;-147.20;48.16
55038;BME280;40937;53.594;10.034;2022-07-17T08:44:20;78520.75;;;-147.20;48.34
55038;BME280;40937;53.594;10.034;2022-07-17T08:46:47;78506.63;;;-147.20;48.07
55038;BME280;40937;53.594;10.034;2022-07-17T08:49:20;78502.59;;;-147.20;47.83
55038;BME280;40937;53.594;10.034;2022-07-17T08:51:47;78498.53;;;-147.20;47.96
55038;BME280;40937;53.594;10.034;2022-07-17T08:54:14;78494.50;;;-147.20;48.12
55038;BME280;40937;53.594;10.034;2022-07-17T08:56:41;78494.50;;;-147.20;48.26
55038;BME280;40937;53.594;10.034;2022-07-17T08:59:08;78500.56;;;-147.20;48.24
55038;BME280;40937;53.594;10.034;2022-07-17T09:01:35;78492.47;;;-147.20;48.17
55038;BME280;40937;53.594;10.034;2022-07-17T09:04:04;78468.25;;;-147.20;47.89
55038;BME280;40937;53.594;10.034;2022-07-17T09:06:34;78462.19;;;-147.20;48.36
55038;BME280;40937;53.594;10.034;2022-07-17T09:09:05;78456.13;;;-147.20;47.71
55038;BME280;40937;53.594;10.034;2022-07-17T09:11:41;78450.06;;;-147.20;47.31
55038;BME280;40937;53.594;10.034;2022-07-17T09:14:08;78456.13;;;-147.20;46.63
55038;BME280;40937;53.594;10.034;2022-07-17T09:16:35;78458.16;;;-147.20;46.16
55038;BME280;40937;53.594;10.034;2022-07-17T09:19:02;78448.06;;;-147.20;45.85
55038;BME280;40937;53.594;10.034;2022-07-17T09:21:29;78439.97;;;-147.20;45.08
55038;BME280;40937;53.594;10.034;2022-07-17T09:23:59;78427.88;;;-147.20;44.81
55038;BME280;40937;53.594;10.034;2022-07-17T09:26:27;78419.78;;;-147.20;45.30
55038;BME280;40937;53.594;10.034;2022-07-17T09:28:54;78407.66;;;-147.20;46.04
55038;BME280;40937;53.594;10.034;2022-07-17T09:31:25;78399.59;;;-147.20;46.70
55038;BME280;40937;53.594;10.034;2022-07-17T09:33:52;78393.53;;;-147.20;46.42
55038;BME280;40937;53.594;10.034;2022-07-17T09:36:19;78375.38;;;-147.20;45.62
55038;BME280;40937;53.594;10.034;2022-07-17T09:38:48;78391.50;;;-147.20;45.42
55038;BME280;40937;53.594;10.034;2022-07-17T09:41:18;78385.47;;;-147.20;44.07
55038;BME280;40937;53.594;10.034;2022-07-17T09:43:47;78393.53;;;-147.20;44.55
55038;BME280;40937;53.594;10.034;2022-07-17T09:46:17;78383.44;;;-147.20;44.51
55038;BME280;40937;53.594;10.034;2022-07-17T09:48:46;78369.31;;;-147.20;44.58
55038;BME280;40937;53.594;10.034;2022-07-17T09:51:19;78361.22;;;-147.20;44.53
55038;BME280;40937;53.594;10.034;2022-07-17T09:53:47;78369.31;;;-147.20;44.45
55038;BME280;40937;53.594;10.034;2022-07-17T09:56:17;78369.31;;;-147.20;44.36
55038;BME280;40937;53.594;10.034;2022-07-17T09:58:45;78375.38;;;-147.20;43.77
55038;BME280;40937;53.594;10.034;2022-07-17T10:01:14;78371.31;;;-147.20;43.24
55038;BME280;40937;53.594;10.034;2022-07-17T10:03:42;78365.25;;;-147.20;42.96
55038;BME280;40937;53.594;10.034;2022-07-17T10:06:14;78363.25;;;-147.20;43.43
55038;BME280;40937;53.594;10.034;2022-07-17T10:08:41;78353.16;;;-147.20;43.58
55038;BME280;40937;53.594;10.034;2022-07-17T10:11:09;78341.03;;;-147.20;44.07
55038;BME280;40937;53.594;10.034;2022-07-17T10:13:39;78332.97;;;-147.20;43.71
55038;BME280;40937;53.594;10.034;2022-07-17T10:16:07;78330.94;;;-147.20;43.55
55038;BME280;40937;53.594;10.034;2022-07-17T10:18:35;78320.84;;;-147.20;43.06
55038;BME280;40937;53.594;10.034;2022-07-17T10:21:21;78320.84;;;-147.20;43.04
55038;BME280;40937;53.594;10.034;2022-07-17T10:24:04;78318.81;;;-147.20;42.69
55038;BME280;40937;53.594;10.034;2022-07-17T10:26:32;78304.69;;;-147.20;42.85
55038;BME280;40937;53.594;10.034;2022-07-17T10:29:00;78298.63;;;-147.20;42.80
55038;BME280;40937;53.594;10.034;2022-07-17T10:31:29;78304.69;;;-147.20;42.94
55038;BME280;40937;53.594;10.034;2022-07-17T10:33:57;78302.66;;;-147.20;42.65
55038;BME280;40937;53.594;10.034;2022-07-17T10:36:37;78298.63;;;-147.20;42.72
55038;BME280;40937;53.594;10.034;2022-07-17T10:39:13;78286.50;;;-147.20;42.97
55038;BME280;40937;53.594;10.034;2022-07-17T10:41:41;78276.41;;;-147.20;43.28
55038;BME280;40937;53.594;10.034;2022-07-17T10:44:09;78272.38;;;-147.20;43.20
55038;BME280;40937;53.594;10.034;2022-07-17T10:46:36;78274.41;;;-147.20;43.17
55038;BME280;40937;53.594;10.034;2022-07-17T10:49:02;78264.31;;;-147.20;42.78
55038;BME280;40937;53.594;10.034;2022-07-17T10:51:30;78256.22;;;-147.20;42.66
55038;BME280;40937;53.594;10.034;2022-07-17T10:53:58;78242.09;;;-147.20;41.89
55038;BME280;40937;53.594;10.034;2022-07-17T10:56:26;78248.16;;;-147.20;42.19
55038;BME280;40937;53.594;10.034;2022-07-17T10:58:53;78248.16;;;-147.20;42.14
55038;BME280;40937;53.594;10.034;2022-07-17T11:01:28;78234.03;;;-147.20;42.10
55038;BME280;40937;53.594;10.034;2022-07-17T11:03:56;78232.00;;;-147.20;41.72
55038;BME280;40937;53.594;10.034;2022-07-17T11:06:24;78215.84;;;-147.20;42.11
55038;BME280;40937;53.594;10.034;2022-07-17T11:08:53;78221.91;;;-147.20;42.02
55038;BME280;40937;53.594;10.034;2022-07-17T11:11:23;78205.75;;;-147.20;42.31
55038;BME280;40937;53.594;10.034;2022-07-17T11:14:07;78197.66;;;-147.20;42.17
55038;BME280;40937;53.594;10.034;2022-07-17T11:16:36;78193.63;;;-147.20;41.73
55038;BME280;40937;53.594;10.034;2022-07-17T11:19:03;78179.50;;;-147.20;41.83
55038;BME280;40937;53.594;10.034;2022-07-17T11:21:30;78175.47;;;-147.20;41.29
55038;BME280;40937;53.594;10.034;2022-07-17T11:23:57;78171.41;;;-147.20;40.92
55038;BME280;40937;53.594;10.034;2022-07-17T11:26:24;78163.34;;;-147.20;41.63
55038;BME280;40937;53.594;10.034;2022-07-17T11:28:51;78151.22;;;-147.20;41.35
55038;BME280;40937;53.594;10.034;2022-07-17T11:31:21;78141.13;;;-147.20;41.23
55038;BME280;40937;53.594;10.034;2022-07-17T11:33:53;78131.03;;;-147.20;40.73
55038;BME280;40937;53.594;10.034;2022-07-17T11:36:25;78129.03;;;-147.20;40.65
55038;BME280;40937;53.594;10.034;2022-07-17T11:38:54;78120.94;;;-147.20;40.50
55038;BME280;40937;53.594;10.034;2022-07-17T11:41:21;78114.88;;;-147.20;40.03
55038;BME280;40937;53.594;10.034;2022-07-17T11:43:48;78118.94;;;-147.20;40.53
55038;BME280;40937;53.594;10.034;2022-07-17T11:46:15;78102.78;;;-147.20;40.27
55038;BME280;40937;53.594;10.034;2022-07-17T11:48:43;78094.69;;;-147.20;40.60
55038;BME280;40937;53.594;10.034;2022-07-17T11:51:11;78076.53;;;-147.20;40.59
55038;BME280;40937;53.594;10.034;2022-07-17T11:53:39;78066.44;;;-147.20;40.52
55038;BME280;40937;53.594;10.034;2022-07-17T11:56:06;78052.28;;;-147.20;40.54
55038;BME280;40937;53.594;10.034;2022-07-17T11:58:41;78044.22;;;-147.20;40.07
55038;BME280;40937;53.594;10.034;2022-07-17T12:01:08;78030.09;;;-147.20;40.14
55038;BME280;40937;53.594;10.034;2022-07-17T12:03:35;78011.91;;;-147.20;39.89
55038;BME280;40937;53.594;10.034;2022-07-17T12:06:02;78009.91;;;-147.20;39.33
55038;BME280;40937;53.594;10.034;2022-07-17T12:08:30;78011.91;;;-147.20;39.89
55038;BME280;40937;53.594;10.034;2022-07-17T12:11:02;78005.84;;;-147.20;39.61
55038;BME280;40937;53.594;10.034;2022-07-17T12:13:40;78001.81;;;-147.20;39.79
55038;BME280;40937;53.594;10.034;2022-07-17T12:16:25;77991.72;;;-147.20;39.45
55038;BME280;40937;53.594;10.034;2022-07-17T12:18:58;77981.63;;;-147.20;39.13
55038;BME280;40937;53.594;10.034;2022-07-17T12:21:28;77987.69;;;-147.20;38.97
55038;BME280;40937;53.594;10.034;2022-07-17T12:24:02;77997.78;;;-147.20;39.16
55038;BME280;40937;53.594;10.034;2022-07-17T12:26:29;77985.66;;;-147.20;38.29
55038;BME280;40937;53.594;10.034;2022-07-17T12:28:56;77987.69;;;-147.20;38.33
55038;BME280;40937;53.594;10.034;2022-07-17T12:31:25;77971.53;;;-147.20;38.60
55038;BME280;40937;53.594;10.034;2022-07-17T12:33:53;77961.44;;;-147.20;39.06